createdAt,value
2018-03-29T00:00:27.394Z,99250.00
2018-03-29T00:02:53.761Z,99241.34
2018-03-29T00:05:20.132Z,99246.77
2018-03-29T00:07:46.498Z,99234.29
2018-03-29T00:10:12.861Z,99236.08
2018-03-29T00:12:39.247Z,99232.91
2018-03-29T00:15:05.638Z,99240.50
2018-03-29T00:17:32.059Z,99254.68
2018-03-29T00:19:58.434Z,99258.62
2018-03-29T00:22:24.839Z,99261.03
2018-03-29T00:24:51.238Z,99257.58
2018-03-29T00:27:17.622Z,99255.47
2018-03-29T00:29:44.019Z,99262.59
2018-03-29T00:32:10.394Z,99266.77
2018-03-29T00:34:36.763Z,99276.60
2018-03-29T00:37:03.130Z,99277.19
2018-03-29T00:39:29.489Z,99275.75
2018-03-29T00:41:56.280Z,99260.73
2018-03-29T00:44:22.636Z,99254.00
2018-03-29T00:46:49.130Z,99258.39
2018-03-29T00:49:15.545Z,99253.88
2018-03-29T00:51:41.981Z,99250.31
2018-03-29T00:54:08.366Z,99246.78
2018-03-29T00:56:34.726Z,99231.55
2018-03-29T00:59:01.085Z,99229.27
2018-03-29T01:01:27.467Z,99220.22
2018-03-29T01:03:53.841Z,99212.70
2018-03-29T01:06:21.215Z,99207.13
2018-03-29T01:08:47.586Z,99213.19
2018-03-29T01:11:14.013Z,99208.34
2018-03-29T01:13:40.387Z,99203.41
2018-03-29T01:16:06.928Z,99198.45
2018-03-29T01:18:33.338Z,99198.68
2018-03-29T01:20:59.761Z,99193.35
2018-03-29T01:23:26.234Z,99190.30
2018-03-29T01:25:52.588Z,99187.34
2018-03-29T01:28:18.990Z,99192.97
2018-03-29T01:30:45.383Z,99193.59
2018-03-29T01:33:11.750Z,99185.81
2018-03-29T01:35:38.126Z,99179.16
2018-03-29T01:38:04.561Z,99181.45
2018-03-29T01:40:30.929Z,99180.66
2018-03-29T01:42:57.367Z,99192.00
2018-03-29T01:45:23.778Z,99193.76
2018-03-29T01:47:50.238Z,99195.79
2018-03-29T01:50:16.636Z,99205.44
2018-03-29T01:52:43.085Z,99193.29
2018-03-29T01:55:09.448Z,99195.44
2018-03-29T01:57:35.862Z,99182.53
2018-03-29T02:00:02.342Z,99181.34
2018-03-29T02:02:28.819Z,99182.44
2018-03-29T02:04:55.241Z,99180.27
2018-03-29T02:07:21.628Z,99188.89
2018-03-29T02:09:48.174Z,99195.33
2018-03-29T02:12:14.626Z,99199.11
2018-03-29T02:14:41.078Z,99191.78
2018-03-29T02:17:07.490Z,99195.52
2018-03-29T02:19:33.952Z,99195.05
2018-03-29T02:22:00.386Z,99209.83
2018-03-29T02:24:26.777Z,99210.30
2018-03-29T02:26:53.225Z,99223.55
2018-03-29T02:29:19.601Z,99211.44
2018-03-29T02:31:45.988Z,99213.83
2018-03-29T02:34:12.362Z,99219.75
2018-03-29T02:36:38.763Z,99213.31
2018-03-29T02:39:05.190Z,99213.16
2018-03-29T02:41:31.632Z,99205.02
2018-03-29T02:43:58.044Z,99211.83
2018-03-29T02:46:24.399Z,99225.03
2018-03-29T02:48:50.798Z,99225.89
2018-03-29T02:51:17.192Z,99229.98
2018-03-29T02:53:43.554Z,99232.59
2018-03-29T02:56:09.922Z,99235.13
2018-03-29T02:58:36.291Z,99230.49
2018-03-29T03:01:02.718Z,99225.84
2018-03-29T03:03:29.070Z,99222.69
2018-03-29T03:05:55.562Z,99222.25
2018-03-29T03:08:22.060Z,99218.64
2018-03-29T03:10:48.455Z,99209.19
2018-03-29T03:13:14.828Z,99210.08
2018-03-29T03:15:41.260Z,99209.45
2018-03-29T03:18:07.658Z,99206.22
2018-03-29T03:20:34.058Z,99207.28
2018-03-29T03:23:00.436Z,99202.11
2018-03-29T03:25:26.796Z,99203.69
2018-03-29T03:27:53.258Z,99213.05
2018-03-29T03:30:19.846Z,99214.21
2018-03-29T03:32:46.246Z,99215.72
2018-03-29T03:35:12.633Z,99220.36
2018-03-29T03:37:39.058Z,99218.48
2018-03-29T03:40:05.466Z,99214.84
2018-03-29T03:42:32.019Z,99212.97
2018-03-29T03:44:58.440Z,99210.56
2018-03-29T03:47:24.821Z,99217.28
2018-03-29T03:49:51.279Z,99222.11
2018-03-29T03:52:17.678Z,99224.14
2018-03-29T03:54:44.077Z,99225.08
2018-03-29T03:57:10.453Z,99222.70
2018-03-29T03:59:36.845Z,99221.94
2018-03-29T04:02:03.236Z,99214.39
2018-03-29T04:04:29.606Z,99219.03
2018-03-29T04:06:55.974Z,99218.48
2018-03-29T04:09:22.417Z,99224.87
2018-03-29T04:11:48.830Z,99237.27
2018-03-29T04:14:15.210Z,99231.61
2018-03-29T04:16:41.841Z,99236.05
2018-03-29T04:19:08.404Z,99230.20
2018-03-29T04:21:34.885Z,99232.29
2018-03-29T04:24:01.267Z,99229.14
2018-03-29T04:26:27.712Z,99229.78
2018-03-29T04:28:54.080Z,99237.50
2018-03-29T04:31:20.470Z,99240.18
2018-03-29T04:33:46.834Z,99249.67
2018-03-29T04:36:13.189Z,99251.83
2018-03-29T04:38:39.569Z,99251.91
2018-03-29T04:41:06.004Z,99249.29
2018-03-29T04:43:32.566Z,99251.88
2018-03-29T04:45:58.981Z,99255.09
2018-03-29T04:48:25.414Z,99251.48
2018-03-29T04:50:51.850Z,99253.03
2018-03-29T04:53:18.361Z,99255.87
2018-03-29T04:55:44.797Z,99259.83
2018-03-29T04:58:11.174Z,99266.59
2018-03-29T05:00:37.565Z,99274.97
2018-03-29T05:03:03.996Z,99277.92
2018-03-29T05:05:30.391Z,99280.78
2018-03-29T05:07:56.770Z,99285.84
2018-03-29T05:10:23.174Z,99289.23
2018-03-29T05:12:49.546Z,99284.77
2018-03-29T05:15:15.969Z,99290.31
2018-03-29T05:17:42.354Z,99288.30
2018-03-29T05:20:08.812Z,99288.91
2018-03-29T05:22:35.489Z,99304.91
2018-03-29T05:25:01.921Z,99300.99
2018-03-29T05:27:28.386Z,99305.27
2018-03-29T05:29:54.770Z,99310.81
2018-03-29T05:32:21.150Z,99311.77
2018-03-29T05:34:47.568Z,99309.64
2018-03-29T05:37:14.038Z,99317.16
2018-03-29T05:39:40.454Z,99317.41
2018-03-29T05:42:06.825Z,99318.92
2018-03-29T05:44:33.314Z,99326.70
2018-03-29T05:46:59.767Z,99329.02
2018-03-29T05:49:26.145Z,99332.73
2018-03-29T05:51:52.638Z,99327.58
2018-03-29T05:54:19.034Z,99330.99
2018-03-29T05:56:45.410Z,99330.89
2018-03-29T05:59:11.761Z,99334.77
2018-03-29T06:01:38.188Z,99336.87
2018-03-29T06:04:04.724Z,99340.46
2018-03-29T06:06:31.133Z,99339.30
2018-03-29T06:08:57.499Z,99344.81
2018-03-29T06:11:23.866Z,99345.07
2018-03-29T06:13:56.425Z,99346.99
2018-03-29T06:16:22.830Z,99346.84
2018-03-29T06:18:49.247Z,99351.97
2018-03-29T06:21:15.618Z,99352.66
2018-03-29T06:23:42.130Z,99351.38
2018-03-29T06:26:08.845Z,99354.13
2018-03-29T06:28:35.240Z,99348.73
2018-03-29T06:31:01.574Z,99358.11
2018-03-29T06:33:27.990Z,99359.06
2018-03-29T06:35:54.437Z,99357.36
2018-03-29T06:38:20.802Z,99357.14
2018-03-29T06:40:47.166Z,99360.75
2018-03-29T06:43:13.597Z,99375.16
2018-03-29T06:45:39.965Z,99372.70
2018-03-29T06:48:06.318Z,99377.10
2018-03-29T06:50:32.703Z,99371.30
2018-03-29T06:52:59.069Z,99382.51
2018-03-29T06:55:25.558Z,99386.13
2018-03-29T06:57:51.923Z,99387.25
2018-03-29T07:00:18.302Z,99389.38
2018-03-29T07:02:44.674Z,99394.07
2018-03-29T07:05:11.042Z,99390.94
2018-03-29T07:07:37.456Z,99392.63
2018-03-29T07:10:03.945Z,99394.84
2018-03-29T07:12:30.339Z,99406.60
2018-03-29T07:14:56.866Z,99406.70
2018-03-29T07:17:23.215Z,99411.80
2018-03-29T07:19:49.593Z,99411.08
2018-03-29T07:22:15.969Z,99415.24
2018-03-29T07:24:42.330Z,99422.13
2018-03-29T07:27:08.702Z,99414.63
2018-03-29T07:29:35.054Z,99428.37
2018-03-29T07:32:01.420Z,99434.59
2018-03-29T07:34:27.796Z,99430.16
2018-03-29T07:36:54.191Z,99434.73
2018-03-29T07:39:20.729Z,99446.94
2018-03-29T07:41:50.314Z,99452.17
2018-03-29T07:44:24.411Z,99449.22
2018-03-29T07:46:53.261Z,99452.30
2018-03-29T07:49:19.791Z,99455.54
2018-03-29T07:51:46.153Z,99457.44
2018-03-29T07:54:12.505Z,99459.05
2018-03-29T07:56:38.882Z,99459.45
2018-03-29T07:59:05.274Z,99453.64
2018-03-29T08:01:31.649Z,99452.69
2018-03-29T08:03:58.031Z,99454.02
2018-03-29T08:06:24.574Z,99462.02
2018-03-29T08:08:50.950Z,99450.94
2018-03-29T08:11:17.336Z,99453.89
2018-03-29T08:13:43.698Z,99456.11
2018-03-29T08:16:10.062Z,99460.61
2018-03-29T08:18:36.485Z,99455.05
2018-03-29T08:21:02.846Z,99451.95
2018-03-29T08:23:29.191Z,99449.84
2018-03-29T08:25:55.571Z,99452.30
2018-03-29T08:28:22.004Z,99442.93
2018-03-29T08:30:48.374Z,99444.24
2018-03-29T08:33:14.750Z,99442.44
2018-03-29T08:35:41.138Z,99448.43
2018-03-29T08:38:07.494Z,99446.25
2018-03-29T08:40:33.889Z,99444.77
2018-03-29T08:43:00.302Z,99443.88
2018-03-29T08:45:26.670Z,99435.92
2018-03-29T08:47:53.039Z,99429.45
2018-03-29T08:50:19.659Z,99445.27
2018-03-29T08:52:46.315Z,99444.81
2018-03-29T08:55:12.725Z,99435.41
2018-03-29T08:57:39.101Z,99446.72
2018-03-29T09:00:05.717Z,99444.86
2018-03-29T09:02:32.134Z,99439.73
2018-03-29T09:04:58.870Z,99437.78
2018-03-29T09:07:25.239Z,99439.23
2018-03-29T09:09:51.842Z,99442.08
2018-03-29T09:12:18.217Z,99441.72
2018-03-29T09:14:44.614Z,99450.52
2018-03-29T09:17:11.002Z,99440.55
2018-03-29T09:19:37.576Z,99434.11
2018-03-29T09:22:04.106Z,99436.75
2018-03-29T09:24:30.470Z,99434.83
2018-03-29T09:26:56.869Z,99430.72
2018-03-29T09:29:23.234Z,99433.58
2018-03-29T09:31:49.613Z,99430.28
2018-03-29T09:34:16.113Z,99436.53
2018-03-29T09:36:42.642Z,99434.97
2018-03-29T09:39:09.038Z,99428.91
2018-03-29T09:41:35.714Z,99432.92
2018-03-29T09:44:02.081Z,99421.13
2018-03-29T09:46:28.485Z,99417.38
2018-03-29T09:48:54.874Z,99419.47
2018-03-29T09:51:21.344Z,99418.63
2018-03-29T09:53:47.692Z,99414.55
2018-03-29T09:56:14.073Z,99411.09
2018-03-29T09:58:40.529Z,99422.34
2018-03-29T10:01:06.962Z,99423.70
2018-03-29T10:03:39.595Z,99429.13
2018-03-29T10:06:06.077Z,99424.02
2018-03-29T10:08:32.481Z,99423.91
2018-03-29T10:10:59.019Z,99427.73
2018-03-29T10:13:25.413Z,99427.31
2018-03-29T10:15:51.942Z,99423.78
2018-03-29T10:18:18.304Z,99429.98
2018-03-29T10:20:44.733Z,99430.59
2018-03-29T10:23:11.140Z,99431.28
2018-03-29T10:25:37.618Z,99437.11
2018-03-29T10:28:04.014Z,99431.08
2018-03-29T10:30:30.673Z,99433.83
2018-03-29T10:32:57.089Z,99431.81
2018-03-29T10:35:23.482Z,99428.79
2018-03-29T10:37:54.300Z,99429.81
2018-03-29T10:40:54.246Z,99425.03
2018-03-29T10:43:21.203Z,99421.37
2018-03-29T10:45:49.538Z,99422.73
2018-03-29T10:48:16.913Z,99426.20
2018-03-29T10:50:46.038Z,99423.52
2018-03-29T10:53:21.799Z,99422.27
2018-03-29T10:55:51.421Z,99427.44
2018-03-29T10:58:18.002Z,99422.49
2018-03-29T11:00:44.481Z,99419.00
2018-03-29T11:03:11.089Z,99415.98
2018-03-29T11:05:37.622Z,99423.81
2018-03-29T11:08:04.178Z,99420.47
2018-03-29T11:10:30.646Z,99419.39
2018-03-29T11:12:57.014Z,99427.03
2018-03-29T11:15:23.458Z,99419.31
2018-03-29T11:17:49.843Z,99411.69
2018-03-29T11:20:16.290Z,99404.95
2018-03-29T11:22:42.685Z,99401.73
2018-03-29T11:25:09.154Z,99409.46
2018-03-29T11:27:35.577Z,99409.65
2018-03-29T11:30:02.186Z,99413.48
2018-03-29T11:32:28.678Z,99394.42
2018-03-29T11:34:55.097Z,99394.86
2018-03-29T11:37:21.754Z,99389.14
2018-03-29T11:39:48.169Z,99380.44
2018-03-29T11:42:14.666Z,99382.31
2018-03-29T11:44:41.158Z,99383.58
2018-03-29T11:47:07.571Z,99379.12
2018-03-29T11:49:34.007Z,99378.20
2018-03-29T11:52:00.510Z,99384.37
2018-03-29T11:54:26.904Z,99369.34
2018-03-29T11:56:53.326Z,99365.52
2018-03-29T11:59:19.829Z,99370.48
2018-03-29T12:01:46.214Z,99365.13
2018-03-29T12:04:12.730Z,99369.95
2018-03-29T12:06:39.185Z,99367.14
2018-03-29T12:09:05.806Z,99368.07
2018-03-29T12:11:32.357Z,99371.27
2018-03-29T12:13:58.798Z,99353.93
2018-03-29T12:16:25.258Z,99355.36
2018-03-29T12:18:51.738Z,99355.66
2018-03-29T12:21:18.178Z,99359.80
2018-03-29T12:23:44.593Z,99354.50
2018-03-29T12:26:11.146Z,99352.34
2018-03-29T12:28:37.569Z,99354.33
2018-03-29T12:31:04.087Z,99353.06
2018-03-29T12:33:30.503Z,99344.26
2018-03-29T12:35:56.998Z,99347.38
2018-03-29T12:38:23.458Z,99338.24
2018-03-29T12:40:49.861Z,99335.24
2018-03-29T12:43:16.242Z,99335.08
2018-03-29T12:45:42.671Z,99331.15
2018-03-29T12:48:09.200Z,99338.53
2018-03-29T12:50:35.626Z,99335.53
2018-03-29T12:53:02.033Z,99326.79
2018-03-29T12:55:38.554Z,99327.21
2018-03-29T12:58:11.784Z,99324.08
2018-03-29T13:00:38.271Z,99322.47
2018-03-29T13:03:04.749Z,99325.47
2018-03-29T13:05:31.170Z,99323.78
2018-03-29T13:07:57.605Z,99325.11
2018-03-29T13:10:24.066Z,99321.60
2018-03-29T13:12:50.611Z,99324.14
2018-03-29T13:15:17.050Z,99317.39
2018-03-29T13:17:43.417Z,99320.73
2018-03-29T13:20:09.865Z,99310.65
2018-03-29T13:22:36.409Z,99313.25
2018-03-29T13:25:02.958Z,99311.08
2018-03-29T13:27:29.414Z,99306.37
2018-03-29T13:29:55.806Z,99308.16
2018-03-29T13:32:22.268Z,99305.01
2018-03-29T13:34:48.738Z,99310.05
2018-03-29T13:37:15.246Z,99306.94
2018-03-29T13:39:41.633Z,99307.23
2018-03-29T13:42:08.037Z,99312.91
2018-03-29T13:44:34.516Z,99312.57
2018-03-29T13:47:01.013Z,99306.51
2018-03-29T13:49:27.513Z,99307.91
2018-03-29T13:51:53.882Z,99316.29
2018-03-29T13:54:20.290Z,99308.37
2018-03-29T13:56:46.704Z,99309.75
2018-03-29T13:59:13.122Z,99308.26
2018-03-29T14:01:39.546Z,99303.51
2018-03-29T14:04:06.044Z,99302.20
2018-03-29T14:06:32.539Z,99300.06
2018-03-29T14:08:59.028Z,99296.16
2018-03-29T14:11:25.509Z,99301.42
2018-03-29T14:13:51.948Z,99298.77
2018-03-29T14:16:18.314Z,99300.66
2018-03-29T14:18:44.772Z,99302.36
2018-03-29T14:21:11.141Z,99305.00
2018-03-29T14:23:37.935Z,99306.89
2018-03-29T14:26:04.547Z,99310.27
2018-03-29T14:28:30.930Z,99313.03
2018-03-29T14:30:57.549Z,99313.94
2018-03-29T14:33:23.954Z,99307.58
2018-03-29T14:35:50.608Z,99309.83
2018-03-29T14:38:17.286Z,99321.49
2018-03-29T14:40:43.813Z,99318.20
2018-03-29T14:43:10.302Z,99325.51
2018-03-29T14:45:36.794Z,99322.18
2018-03-29T14:48:03.214Z,99323.93
2018-03-29T14:50:29.641Z,99320.77
2018-03-29T14:52:56.150Z,99322.40
2018-03-29T14:55:22.594Z,99321.66
2018-03-29T14:57:49.022Z,99335.46
2018-03-29T15:00:16.237Z,99331.32
2018-03-29T15:02:42.701Z,99327.22
2018-03-29T15:05:09.150Z,99324.23
2018-03-29T15:07:35.662Z,99329.83
2018-03-29T15:10:02.145Z,99336.31
2018-03-29T15:12:28.557Z,99334.48
2018-03-29T15:14:54.934Z,99334.14
2018-03-29T15:17:21.386Z,99337.69
2018-03-29T15:19:47.865Z,99338.87
2018-03-29T15:22:14.286Z,99346.86
2018-03-29T15:24:40.706Z,99354.92
2018-03-29T15:27:07.142Z,99361.03
2018-03-29T15:29:33.628Z,99363.67
2018-03-29T15:32:00.146Z,99361.83
2018-03-29T15:34:26.654Z,99364.69
2018-03-29T15:36:53.025Z,99362.38
2018-03-29T15:39:19.443Z,99362.21
2018-03-29T15:41:45.873Z,99372.20
2018-03-29T15:44:12.274Z,99367.94
2018-03-29T15:46:38.765Z,99368.54
2018-03-29T15:49:05.174Z,99374.48
2018-03-29T15:51:31.569Z,99372.77
2018-03-29T15:53:58.007Z,99374.09
2018-03-29T15:56:24.434Z,99373.24
2018-03-29T15:58:50.852Z,99379.86
2018-03-29T16:01:17.353Z,99387.55
2018-03-29T16:03:43.778Z,99383.57
2018-03-29T16:06:10.218Z,99387.23
2018-03-29T16:08:36.710Z,99383.55
2018-03-29T16:11:03.181Z,99397.73
2018-03-29T16:13:29.654Z,99403.19
2018-03-29T16:15:56.121Z,99404.33
2018-03-29T16:18:22.510Z,99400.60
2018-03-29T16:20:48.941Z,99405.59
2018-03-29T16:23:15.390Z,99408.28
2018-03-29T16:25:41.738Z,99414.84
2018-03-29T16:28:08.117Z,99415.02
2018-03-29T16:30:34.678Z,99417.44
2018-03-29T16:33:01.085Z,99423.69
2018-03-29T16:35:27.474Z,99427.35
2018-03-29T16:37:53.967Z,99434.60
2018-03-29T16:40:20.330Z,99435.89
2018-03-29T16:42:46.829Z,99435.87
2018-03-29T16:45:13.226Z,99444.73
2018-03-29T16:47:39.681Z,99443.41
2018-03-29T16:50:06.133Z,99437.23
2018-03-29T16:52:32.510Z,99440.66
2018-03-29T16:54:58.996Z,99440.27
2018-03-29T16:57:25.443Z,99441.11
2018-03-29T16:59:51.841Z,99446.23
2018-03-29T17:02:18.257Z,99438.93
2018-03-29T17:04:44.754Z,99448.22
2018-03-29T17:07:11.100Z,99446.31
2018-03-29T17:09:37.534Z,99453.72
2018-03-29T17:12:03.986Z,99455.06
2018-03-29T17:14:30.441Z,99458.94
2018-03-29T17:16:56.898Z,99463.98
2018-03-29T17:19:23.373Z,99457.25
2018-03-29T17:21:49.830Z,99461.44
2018-03-29T17:24:16.245Z,99462.59
2018-03-29T17:26:42.856Z,99473.88
2018-03-29T17:29:09.301Z,99475.37
2018-03-29T17:31:35.779Z,99474.78
2018-03-29T17:34:02.177Z,99483.06
2018-03-29T17:36:28.650Z,99486.81
2018-03-29T17:38:55.106Z,99494.02
2018-03-29T17:41:21.497Z,99501.73
2018-03-29T17:43:47.941Z,99501.23
2018-03-29T17:46:14.447Z,99503.98
2018-03-29T17:48:40.898Z,99508.30
2018-03-29T17:51:07.350Z,99510.94
2018-03-29T17:53:33.737Z,99514.11
2018-03-29T17:56:00.232Z,99517.92
2018-03-29T17:58:26.603Z,99521.17
2018-03-29T18:00:53.019Z,99519.67
2018-03-29T18:03:19.427Z,99520.34
2018-03-29T18:05:45.873Z,99521.80
2018-03-29T18:08:12.280Z,99530.32
2018-03-29T18:10:38.734Z,99535.66
2018-03-29T18:13:05.149Z,99538.02
2018-03-29T18:15:31.560Z,99537.19
2018-03-29T18:17:57.965Z,99543.00
2018-03-29T18:20:24.366Z,99544.39
2018-03-29T18:22:50.786Z,99538.50
2018-03-29T18:25:17.222Z,99543.44
2018-03-29T18:27:43.625Z,99544.94
2018-03-29T18:30:10.033Z,99545.17
2018-03-29T18:32:36.493Z,99544.88
2018-03-29T18:35:02.957Z,99552.93
2018-03-29T18:37:29.382Z,99548.25
2018-03-29T18:39:55.780Z,99550.03
2018-03-29T18:42:22.206Z,99550.56
2018-03-29T18:44:48.666Z,99553.80
2018-03-29T18:47:15.037Z,99558.64
2018-03-29T18:49:41.564Z,99559.67
2018-03-29T18:52:08.038Z,99563.62
2018-03-29T18:54:34.422Z,99561.52
2018-03-29T18:57:00.806Z,99561.98
2018-03-29T18:59:27.214Z,99556.73
2018-03-29T19:01:53.641Z,99564.68
2018-03-29T19:04:20.146Z,99557.50
2018-03-29T19:06:46.515Z,99558.03
2018-03-29T19:09:12.933Z,99556.02
2018-03-29T19:11:39.349Z,99556.66
2018-03-29T19:14:05.751Z,99559.95
2018-03-29T19:16:32.185Z,99559.16
2018-03-29T19:18:58.603Z,99561.00
2018-03-29T19:21:25.080Z,99572.34
2018-03-29T19:23:51.562Z,99566.91
2018-03-29T19:26:17.997Z,99568.34
2018-03-29T19:28:44.481Z,99568.16
2018-03-29T19:31:10.902Z,99574.37
2018-03-29T19:33:37.330Z,99575.53
2018-03-29T19:36:03.757Z,99571.38
2018-03-29T19:38:30.198Z,99578.33
2018-03-29T19:40:56.610Z,99582.87
2018-03-29T19:43:23.078Z,99587.22
2018-03-29T19:45:49.522Z,99593.05
2018-03-29T19:48:15.927Z,99594.75
2018-03-29T19:50:42.419Z,99598.78
2018-03-29T19:53:08.873Z,99606.81
2018-03-29T19:55:35.298Z,99606.67
2018-03-29T19:58:01.701Z,99598.37
2018-03-29T20:00:28.119Z,99596.27
2018-03-29T20:02:54.554Z,99612.08
2018-03-29T20:05:20.959Z,99602.09
2018-03-29T20:07:47.394Z,99613.04
2018-03-29T20:10:13.834Z,99613.70
2018-03-29T20:12:40.248Z,99624.81
2018-03-29T20:15:06.691Z,99630.75
2018-03-29T20:17:33.149Z,99624.69
2018-03-29T20:19:59.616Z,99626.47
2018-03-29T20:22:26.024Z,99626.59
2018-03-29T20:24:52.404Z,99631.09
2018-03-29T20:27:18.800Z,99630.30
2018-03-29T20:29:45.208Z,99632.07
2018-03-29T20:32:11.617Z,99632.66
2018-03-29T20:34:38.069Z,99631.33
2018-03-29T20:37:04.413Z,99623.95
2018-03-29T20:39:30.798Z,99623.53
2018-03-29T20:41:57.334Z,99617.78
2018-03-29T20:44:23.823Z,99619.64
2018-03-29T20:46:50.253Z,99617.13
2018-03-29T20:49:16.642Z,99620.52
2018-03-29T20:51:43.069Z,99615.57
2018-03-29T20:54:09.545Z,99609.08
2018-03-29T20:56:35.910Z,99606.78
2018-03-29T20:59:02.274Z,99612.95
2018-03-29T21:01:28.706Z,99619.16
2018-03-29T21:03:55.142Z,99622.41
2018-03-29T21:06:21.550Z,99615.64
2018-03-29T21:08:47.982Z,99613.56
2018-03-29T21:11:14.405Z,99613.13
2018-03-29T21:13:40.786Z,99617.59
2018-03-29T21:16:07.225Z,99622.84
2018-03-29T21:18:33.613Z,99613.61
2018-03-29T21:21:00.010Z,99620.50
2018-03-29T21:23:26.624Z,99624.98
2018-03-29T21:25:53.028Z,99622.13
2018-03-29T21:28:19.485Z,99620.64
2018-03-29T21:30:45.910Z,99619.67
2018-03-29T21:33:12.322Z,99617.33
2018-03-29T21:35:38.751Z,99622.55
2018-03-29T21:38:05.168Z,99634.58
2018-03-29T21:40:31.659Z,99638.12
2018-03-29T21:42:58.092Z,99640.81
2018-03-29T21:45:24.479Z,99651.98
2018-03-29T21:47:50.895Z,99646.52
2018-03-29T21:50:17.344Z,99650.45
2018-03-29T21:52:43.901Z,99653.72
2018-03-29T21:55:10.301Z,99661.95
2018-03-29T21:57:36.721Z,99664.79
2018-03-29T22:00:03.207Z,99661.64
2018-03-29T22:02:29.734Z,99657.64
2018-03-29T22:04:56.161Z,99658.77
2018-03-29T22:07:22.522Z,99669.08
2018-03-29T22:09:48.910Z,99664.63
2018-03-29T22:12:15.318Z,99657.97
2018-03-29T22:14:41.698Z,99655.59
2018-03-29T22:17:08.078Z,99649.91
2018-03-29T22:19:34.481Z,99653.33
2018-03-29T22:22:00.931Z,99656.25
2018-03-29T22:24:27.335Z,99649.22
2018-03-29T22:26:53.810Z,99653.62
2018-03-29T22:29:20.250Z,99657.56
2018-03-29T22:31:46.667Z,99665.81
2018-03-29T22:34:13.117Z,99669.05
2018-03-29T22:36:39.606Z,99662.59
2018-03-29T22:39:06.076Z,99670.19
2018-03-29T22:41:32.499Z,99674.47
2018-03-29T22:43:58.942Z,99674.70
2018-03-29T22:46:25.334Z,99673.41
2018-03-29T22:48:51.810Z,99675.02
2018-03-29T22:51:18.247Z,99683.64
2018-03-29T22:53:44.738Z,99677.64
2018-03-29T22:56:11.205Z,99680.81
2018-03-29T22:58:37.573Z,99685.56
2018-03-29T23:01:03.997Z,99681.86
2018-03-29T23:03:30.401Z,99685.42
2018-03-29T23:05:56.774Z,99683.74
2018-03-29T23:08:23.177Z,99683.36
2018-03-29T23:10:49.605Z,99680.84
2018-03-29T23:13:16.062Z,99682.88
2018-03-29T23:15:42.444Z,99686.70
2018-03-29T23:18:08.878Z,99685.77
2018-03-29T23:20:35.305Z,99681.16
2018-03-29T23:23:01.762Z,99684.95
2018-03-29T23:25:28.187Z,99681.20
2018-03-29T23:27:54.649Z,99682.41
2018-03-29T23:30:21.054Z,99689.80
2018-03-29T23:32:47.413Z,99685.64
2018-03-29T23:35:13.789Z,99685.64
2018-03-29T23:37:40.210Z,99685.91
2018-03-29T23:40:06.581Z,99692.20
2018-03-29T23:42:32.966Z,99700.94
2018-03-29T23:44:59.365Z,99698.19
2018-03-29T23:47:25.766Z,99702.11
2018-03-29T23:49:52.186Z,99702.81
2018-03-29T23:52:18.626Z,99705.63
2018-03-29T23:54:45.020Z,99704.13
2018-03-29T23:57:11.461Z,99702.23
2018-03-29T23:59:37.887Z,99701.44
